sensor_id;sensor_type;location;lat;lon;timestamp;pressure;altitude;pressure_sealevel;temperature;humidity
69971;BME280;57301;50.328;8.542;2022-10-26T00:01:47;98543.91;;;8.12;92.72
69971;BME280;57301;50.328;8.542;2022-10-26T00:04:14;98543.50;;;8.17;91.86
69971;BME280;57301;50.328;8.542;2022-10-26T00:06:40;98542.25;;;8.21;91.94
69971;BME280;57301;50.328;8.542;2022-10-26T00:09:07;98537.66;;;8.23;91.29
69971;BME280;57301;50.328;8.542;2022-10-26T00:11:33;98541.53;;;8.19;90.96
69971;BME280;57301;50.328;8.542;2022-10-26T00:13:59;98545.19;;;8.18;91.75
69971;BME280;57301;50.328;8.542;2022-10-26T00:16:26;98536.50;;;8.16;91.56
69971;BME280;57301;50.328;8.542;2022-10-26T00:18:53;98537.50;;;8.24;91.88
69971;BME280;57301;50.328;8.542;2022-10-26T00:21:20;98534.56;;;8.27;91.89
69971;BME280;57301;50.328;8.542;2022-10-26T00:23:46;98535.38;;;8.28;91.93
69971;BME280;57301;50.328;8.542;2022-10-26T00:26:13;98538.47;;;8.33;92.50
69971;BME280;57301;50.328;8.542;2022-10-26T00:28:40;98536.81;;;8.32;91.92
69971;BME280;57301;50.328;8.542;2022-10-26T00:31:11;98532.94;;;8.36;91.90
69971;BME280;57301;50.328;8.542;2022-10-26T00:33:38;98531.81;;;8.39;92.49
69971;BME280;57301;50.328;8.542;2022-10-26T00:36:04;98537.56;;;8.44;92.46
69971;BME280;57301;50.328;8.542;2022-10-26T00:38:31;98536.41;;;8.46;92.84
69971;BME280;57301;50.328;8.542;2022-10-26T00:40:57;98535.84;;;8.52;92.25
69971;BME280;57301;50.328;8.542;2022-10-26T00:45:51;98542.72;;;8.55;92.27
69971;BME280;57301;50.328;8.542;2022-10-26T00:48:33;98549.75;;;8.66;92.85
69971;BME280;57301;50.328;8.542;2022-10-26T00:51:05;98547.91;;;8.66;92.73
69971;BME280;57301;50.328;8.542;2022-10-26T00:53:32;98540.91;;;8.65;92.28
69971;BME280;57301;50.328;8.542;2022-10-26T00:55:59;98544.41;;;8.66;92.16
69971;BME280;57301;50.328;8.542;2022-10-26T00:58:26;98539.38;;;8.63;92.13
69971;BME280;57301;50.328;8.542;2022-10-26T01:00:53;98533.50;;;8.69;91.85
69971;BME280;57301;50.328;8.542;2022-10-26T01:03:21;98534.47;;;8.68;92.33
69971;BME280;57301;50.328;8.542;2022-10-26T01:05:52;98542.72;;;8.74;92.53
69971;BME280;57301;50.328;8.542;2022-10-26T01:08:20;98534.59;;;8.76;91.77
69971;BME280;57301;50.328;8.542;2022-10-26T01:10:47;98536.84;;;8.71;91.89
69971;BME280;57301;50.328;8.542;2022-10-26T01:13:15;98531.25;;;8.74;91.43
69971;BME280;57301;50.328;8.542;2022-10-26T01:16:05;98534.34;;;8.79;92.56
69971;BME280;57301;50.328;8.542;2022-10-26T01:18:42;98528.44;;;8.75;92.92
69971;BME280;57301;50.328;8.542;2022-10-26T01:23:57;98525.53;;;8.78;93.08
69971;BME280;57301;50.328;8.542;2022-10-26T01:29:50;98528.97;;;8.98;93.39
69971;BME280;57301;50.328;8.542;2022-10-26T01:35:00;98521.28;;;9.05;92.31
69971;BME280;57301;50.328;8.542;2022-10-26T01:37:35;98524.78;;;8.96;92.33
69971;BME280;57301;50.328;8.542;2022-10-26T01:40:09;98520.16;;;8.98;91.66
69971;BME280;57301;50.328;8.542;2022-10-26T01:42:45;98521.53;;;9.02;91.87
69971;BME280;57301;50.328;8.542;2022-10-26T01:45:13;98520.59;;;8.83;92.79
69971;BME280;57301;50.328;8.542;2022-10-26T01:47:42;98513.88;;;8.89;93.22
69971;BME280;57301;50.328;8.542;2022-10-26T01:50:10;98515.38;;;9.01;93.37
69971;BME280;57301;50.328;8.542;2022-10-26T01:52:38;98514.53;;;9.01;93.16
69971;BME280;57301;50.328;8.542;2022-10-26T01:55:37;98512.97;;;9.08;93.05
69971;BME280;57301;50.328;8.542;2022-10-26T01:59:28;98507.94;;;9.14;92.63
69971;BME280;57301;50.328;8.542;2022-10-26T02:01:34;98508.22;;;9.11;92.33
69971;BME280;57301;50.328;8.542;2022-10-26T02:04:45;98505.41;;;9.13;92.89
69971;BME280;57301;50.328;8.542;2022-10-26T02:07:28;98507.94;;;9.14;92.26
69971;BME280;57301;50.328;8.542;2022-10-26T02:12:36;98494.63;;;9.14;93.24
69971;BME280;57301;50.328;8.542;2022-10-26T02:15:09;98494.94;;;9.11;93.21
69971;BME280;57301;50.328;8.542;2022-10-26T02:17:46;98498.28;;;9.13;93.42
69971;BME280;57301;50.328;8.542;2022-10-26T02:20:28;98499.66;;;9.27;93.11
69971;BME280;57301;50.328;8.542;2022-10-26T02:23:00;98495.66;;;9.04;93.88
69971;BME280;57301;50.328;8.542;2022-10-26T02:25:31;98497.16;;;9.16;94.47
69971;BME280;57301;50.328;8.542;2022-10-26T02:28:05;98498.91;;;9.35;93.74
69971;BME280;57301;50.328;8.542;2022-10-26T02:30:33;98489.06;;;9.45;93.55
69971;BME280;57301;50.328;8.542;2022-10-26T02:33:00;98487.63;;;9.51;93.25
69971;BME280;57301;50.328;8.542;2022-10-26T02:35:31;98488.34;;;9.53;93.30
69971;BME280;57301;50.328;8.542;2022-10-26T02:38:01;98491.41;;;9.58;92.02
69971;BME280;57301;50.328;8.542;2022-10-26T02:40:31;98481.19;;;9.53;92.30
69971;BME280;57301;50.328;8.542;2022-10-26T02:43:06;98480.47;;;9.51;92.67
69971;BME280;57301;50.328;8.542;2022-10-26T02:45:39;98486.19;;;9.56;92.20
69971;BME280;57301;50.328;8.542;2022-10-26T02:48:08;98475.16;;;9.51;92.13
69971;BME280;57301;50.328;8.542;2022-10-26T02:53:33;98464.97;;;9.47;92.89
69971;BME280;57301;50.328;8.542;2022-10-26T02:56:09;98463.97;;;9.48;92.74
69971;BME280;57301;50.328;8.542;2022-10-26T02:58:45;98462.75;;;9.42;92.49
69971;BME280;57301;50.328;8.542;2022-10-26T03:01:13;98465.81;;;9.47;92.10
69971;BME280;57301;50.328;8.542;2022-10-26T03:03:40;98454.00;;;9.50;92.04
69971;BME280;57301;50.328;8.542;2022-10-26T03:06:07;98459.94;;;9.43;91.80
69971;BME280;57301;50.328;8.542;2022-10-26T03:08:33;98470.97;;;9.21;93.37
69971;BME280;57301;50.328;8.542;2022-10-26T03:10:59;98470.56;;;9.16;93.25
69971;BME280;57301;50.328;8.542;2022-10-26T03:13:26;98467.00;;;9.25;93.63
69971;BME280;57301;50.328;8.542;2022-10-26T03:15:55;98466.97;;;9.35;93.34
69971;BME280;57301;50.328;8.542;2022-10-26T03:18:24;98470.16;;;9.38;93.29
69971;BME280;57301;50.328;8.542;2022-10-26T03:20:51;98466.56;;;9.39;92.73
69971;BME280;57301;50.328;8.542;2022-10-26T03:23:17;98471.72;;;9.41;93.40
69971;BME280;57301;50.328;8.542;2022-10-26T03:25:43;98471.66;;;9.51;92.93
69971;BME280;57301;50.328;8.542;2022-10-26T03:28:10;98471.78;;;9.59;92.81
69971;BME280;57301;50.328;8.542;2022-10-26T03:30:36;98476.69;;;9.54;93.15
69971;BME280;57301;50.328;8.542;2022-10-26T03:33:03;98474.28;;;9.60;93.93
69971;BME280;57301;50.328;8.542;2022-10-26T03:35:29;98480.94;;;9.74;92.20
69971;BME280;57301;50.328;8.542;2022-10-26T03:37:56;98478.66;;;9.79;92.57
69971;BME280;57301;50.328;8.542;2022-10-26T03:40:22;98479.34;;;9.81;92.63
69971;BME280;57301;50.328;8.542;2022-10-26T03:42:49;98486.59;;;9.89;92.95
69971;BME280;57301;50.328;8.542;2022-10-26T03:45:16;98470.75;;;9.87;93.51
69971;BME280;57301;50.328;8.542;2022-10-26T03:47:44;98476.25;;;9.86;93.21
69971;BME280;57301;50.328;8.542;2022-10-26T03:50:15;98468.31;;;9.94;93.35
69971;BME280;57301;50.328;8.542;2022-10-26T03:52:42;98473.34;;;9.79;95.16
69971;BME280;57301;50.328;8.542;2022-10-26T03:55:09;98468.00;;;9.79;94.67
69971;BME280;57301;50.328;8.542;2022-10-26T03:57:42;98461.47;;;9.91;93.37
69971;BME280;57301;50.328;8.542;2022-10-26T04:00:11;98462.88;;;9.95;93.08
69971;BME280;57301;50.328;8.542;2022-10-26T04:02:37;98468.19;;;9.95;93.40
69971;BME280;57301;50.328;8.542;2022-10-26T04:05:04;98459.13;;;9.88;92.92
69971;BME280;57301;50.328;8.542;2022-10-26T04:07:31;98457.44;;;9.87;94.03
69971;BME280;57301;50.328;8.542;2022-10-26T04:09:57;98458.06;;;9.99;93.10
69971;BME280;57301;50.328;8.542;2022-10-26T04:12:24;98458.28;;;10.06;93.49
69971;BME280;57301;50.328;8.542;2022-10-26T04:14:50;98459.88;;;9.99;94.56
69971;BME280;57301;50.328;8.542;2022-10-26T04:17:17;98464.94;;;10.02;93.76
69971;BME280;57301;50.328;8.542;2022-10-26T04:19:43;98460.28;;;10.04;94.39
69971;BME280;57301;50.328;8.542;2022-10-26T04:22:09;98459.69;;;10.10;94.54
69971;BME280;57301;50.328;8.542;2022-10-26T04:24:36;98459.06;;;10.16;93.80
69971;BME280;57301;50.328;8.542;2022-10-26T04:27:02;98468.06;;;10.15;94.09
69971;BME280;57301;50.328;8.542;2022-10-26T04:29:29;98465.69;;;10.12;94.30
69971;BME280;57301;50.328;8.542;2022-10-26T04:31:56;98453.97;;;10.05;94.22
69971;BME280;57301;50.328;8.542;2022-10-26T04:34:22;98460.97;;;10.06;95.08
69971;BME280;57301;50.328;8.542;2022-10-26T04:36:48;98461.34;;;10.11;94.47
69971;BME280;57301;50.328;8.542;2022-10-26T04:39:15;98462.66;;;10.07;95.73
69971;BME280;57301;50.328;8.542;2022-10-26T04:41:41;98452.81;;;9.89;95.50
69971;BME280;57301;50.328;8.542;2022-10-26T04:44:08;98454.50;;;10.08;95.41
69971;BME280;57301;50.328;8.542;2022-10-26T04:46:34;98450.28;;;9.88;95.81
69971;BME280;57301;50.328;8.542;2022-10-26T04:49:00;98462.09;;;9.85;96.97
69971;BME280;57301;50.328;8.542;2022-10-26T04:51:27;98466.53;;;9.67;98.89
69971;BME280;57301;50.328;8.542;2022-10-26T04:53:53;98466.34;;;9.78;97.79
69971;BME280;57301;50.328;8.542;2022-10-26T04:56:20;98459.03;;;9.80;98.34
69971;BME280;57301;50.328;8.542;2022-10-26T04:58:46;98463.59;;;9.88;97.67
69971;BME280;57301;50.328;8.542;2022-10-26T05:01:13;98463.56;;;9.98;97.41
69971;BME280;57301;50.328;8.542;2022-10-26T05:03:40;98450.31;;;10.06;96.71
69971;BME280;57301;50.328;8.542;2022-10-26T05:06:06;98447.19;;;10.10;96.88
69971;BME280;57301;50.328;8.542;2022-10-26T05:08:32;98454.41;;;10.18;96.21
69971;BME280;57301;50.328;8.542;2022-10-26T05:10:59;98448.50;;;10.24;95.96
69971;BME280;57301;50.328;8.542;2022-10-26T05:13:25;98453.91;;;10.14;96.05
69971;BME280;57301;50.328;8.542;2022-10-26T05:15:57;98451.00;;;10.08;95.41
69971;BME280;57301;50.328;8.542;2022-10-26T05:18:23;98448.47;;;10.06;95.97
69971;BME280;57301;50.328;8.542;2022-10-26T05:20:51;98445.97;;;10.05;95.82
69971;BME280;57301;50.328;8.542;2022-10-26T05:23:18;98444.84;;;10.07;96.34
69971;BME280;57301;50.328;8.542;2022-10-26T05:25:46;98456.47;;;10.06;96.26
69971;BME280;57301;50.328;8.542;2022-10-26T05:28:13;98451.91;;;9.99;96.14
69971;BME280;57301;50.328;8.542;2022-10-26T05:30:43;98455.28;;;10.01;96.01
69971;BME280;57301;50.328;8.542;2022-10-26T05:33:10;98456.47;;;9.88;96.77
69971;BME280;57301;50.328;8.542;2022-10-26T05:35:38;98459.81;;;9.90;95.64
69971;BME280;57301;50.328;8.542;2022-10-26T05:38:15;98455.75;;;9.86;96.49
69971;BME280;57301;50.328;8.542;2022-10-26T05:40:49;98458.28;;;9.70;98.60
69971;BME280;57301;50.328;8.542;2022-10-26T05:43:19;98465.31;;;9.61;99.59
69971;BME280;57301;50.328;8.542;2022-10-26T05:45:46;98468.44;;;9.75;100.00
69971;BME280;57301;50.328;8.542;2022-10-26T05:48:14;98468.09;;;9.87;99.86
69971;BME280;57301;50.328;8.542;2022-10-26T05:50:41;98458.22;;;9.98;99.81
69971;BME280;57301;50.328;8.542;2022-10-26T05:53:07;98459.59;;;10.02;99.80
69971;BME280;57301;50.328;8.542;2022-10-26T05:55:34;98471.16;;;9.92;100.00
69971;BME280;57301;50.328;8.542;2022-10-26T05:58:01;98469.56;;;10.17;99.73
69971;BME280;57301;50.328;8.542;2022-10-26T06:00:28;98457.88;;;10.28;99.28
69971;BME280;57301;50.328;8.542;2022-10-26T06:05:55;98455.03;;;10.47;97.58
69971;BME280;57301;50.328;8.542;2022-10-26T06:08:23;98464.66;;;10.40;97.37
69971;BME280;57301;50.328;8.542;2022-10-26T06:10:50;98478.66;;;10.42;97.51
69971;BME280;57301;50.328;8.542;2022-10-26T06:13:19;98481.78;;;10.56;96.55
69971;BME280;57301;50.328;8.542;2022-10-26T06:18:51;98478.81;;;10.59;96.25
69971;BME280;57301;50.328;8.542;2022-10-26T06:21:37;98493.22;;;10.48;96.12
69971;BME280;57301;50.328;8.542;2022-10-26T06:24:11;98489.75;;;10.56;96.08
69971;BME280;57301;50.328;8.542;2022-10-26T06:29:35;98484.91;;;10.69;95.46
69971;BME280;57301;50.328;8.542;2022-10-26T06:32:07;98492.53;;;10.64;95.40
69971;BME280;57301;50.328;8.542;2022-10-26T06:34:35;98480.44;;;10.77;95.71
69971;BME280;57301;50.328;8.542;2022-10-26T06:37:03;98485.34;;;10.82;95.39
69971;BME280;57301;50.328;8.542;2022-10-26T06:39:34;98488.88;;;10.91;95.41
69971;BME280;57301;50.328;8.542;2022-10-26T06:42:02;98482.47;;;11.01;94.53
69971;BME280;57301;50.328;8.542;2022-10-26T06:44:29;98497.47;;;11.02;94.32
69971;BME280;57301;50.328;8.542;2022-10-26T06:47:06;98497.50;;;11.11;94.09
69971;BME280;57301;50.328;8.542;2022-10-26T06:50:06;98495.72;;;11.11;94.46
69971;BME280;57301;50.328;8.542;2022-10-26T06:52:43;98502.84;;;11.11;94.18
69971;BME280;57301;50.328;8.542;2022-10-26T06:55:14;98497.25;;;10.96;95.99
69971;BME280;57301;50.328;8.542;2022-10-26T06:57:42;98505.00;;;10.81;97.00
69971;BME280;57301;50.328;8.542;2022-10-26T07:00:19;98515.53;;;10.65;99.19
69971;BME280;57301;50.328;8.542;2022-10-26T07:02:46;98526.34;;;10.81;98.79
69971;BME280;57301;50.328;8.542;2022-10-26T07:05:14;98531.06;;;11.13;97.68
69971;BME280;57301;50.328;8.542;2022-10-26T07:07:42;98543.00;;;11.27;96.77
69971;BME280;57301;50.328;8.542;2022-10-26T07:10:11;98535.78;;;11.45;96.33
69971;BME280;57301;50.328;8.542;2022-10-26T07:12:38;98526.50;;;11.57;95.14
69971;BME280;57301;50.328;8.542;2022-10-26T07:15:05;98533.75;;;11.39;95.37
69971;BME280;57301;50.328;8.542;2022-10-26T07:17:41;98539.41;;;11.36;96.38
69971;BME280;57301;50.328;8.542;2022-10-26T07:20:08;98536.81;;;11.52;95.42
69971;BME280;57301;50.328;8.542;2022-10-26T07:22:35;98531.38;;;11.62;95.68
69971;BME280;57301;50.328;8.542;2022-10-26T07:25:03;98522.34;;;11.63;96.12
69971;BME280;57301;50.328;8.542;2022-10-26T07:27:29;98516.69;;;12.00;94.65
69971;BME280;57301;50.328;8.542;2022-10-26T07:29:56;98535.47;;;12.17;93.56
69971;BME280;57301;50.328;8.542;2022-10-26T07:32:22;98530.81;;;12.43;92.37
69971;BME280;57301;50.328;8.542;2022-10-26T07:34:49;98526.50;;;12.50;90.60
69971;BME280;57301;50.328;8.542;2022-10-26T07:37:15;98535.38;;;12.59;89.71
69971;BME280;57301;50.328;8.542;2022-10-26T07:39:42;98536.03;;;12.69;89.29
69971;BME280;57301;50.328;8.542;2022-10-26T07:42:08;98538.91;;;12.84;88.32
69971;BME280;57301;50.328;8.542;2022-10-26T07:44:35;98552.13;;;13.02;88.33
69971;BME280;57301;50.328;8.542;2022-10-26T07:47:01;98554.44;;;13.05;87.92
69971;BME280;57301;50.328;8.542;2022-10-26T07:49:27;98558.97;;;13.12;87.88
69971;BME280;57301;50.328;8.542;2022-10-26T07:51:54;98566.84;;;13.14;88.78
69971;BME280;57301;50.328;8.542;2022-10-26T07:54:20;98566.38;;;13.27;87.72
69971;BME280;57301;50.328;8.542;2022-10-26T07:56:50;98555.59;;;13.43;87.07
69971;BME280;57301;50.328;8.542;2022-10-26T07:59:16;98558.44;;;13.58;86.73
69971;BME280;57301;50.328;8.542;2022-10-26T08:01:43;98556.78;;;13.40;86.72
69971;BME280;57301;50.328;8.542;2022-10-26T08:04:10;98564.41;;;13.68;86.07
69971;BME280;57301;50.328;8.542;2022-10-26T08:06:36;98558.88;;;13.78;85.65
69971;BME280;57301;50.328;8.542;2022-10-26T08:09:03;98567.38;;;13.89;85.39
69971;BME280;57301;50.328;8.542;2022-10-26T08:11:29;98565.16;;;14.01;84.12
69971;BME280;57301;50.328;8.542;2022-10-26T08:13:56;98556.19;;;14.25;84.26
69971;BME280;57301;50.328;8.542;2022-10-26T08:16:22;98562.38;;;14.25;83.40
69971;BME280;57301;50.328;8.542;2022-10-26T08:18:50;98565.97;;;14.41;82.39
69971;BME280;57301;50.328;8.542;2022-10-26T08:21:17;98562.63;;;14.39;82.01
69971;BME280;57301;50.328;8.542;2022-10-26T08:23:55;98553.94;;;14.37;80.84
69971;BME280;57301;50.328;8.542;2022-10-26T08:26:21;98566.19;;;14.31;84.44
69971;BME280;57301;50.328;8.542;2022-10-26T08:28:48;98571.72;;;14.30;85.95
69971;BME280;57301;50.328;8.542;2022-10-26T08:31:16;98565.97;;;14.49;84.69
69971;BME280;57301;50.328;8.542;2022-10-26T08:33:43;98559.47;;;14.66;84.07
69971;BME280;57301;50.328;8.542;2022-10-26T08:36:10;98551.94;;;14.85;83.18
69971;BME280;57301;50.328;8.542;2022-10-26T08:38:37;98558.16;;;15.08;80.98
69971;BME280;57301;50.328;8.542;2022-10-26T08:41:07;98562.06;;;15.20;81.38
69971;BME280;57301;50.328;8.542;2022-10-26T08:43:44;98571.16;;;15.34;80.57
69971;BME280;57301;50.328;8.542;2022-10-26T08:46:19;98573.72;;;15.50;79.37
69971;BME280;57301;50.328;8.542;2022-10-26T08:48:52;98574.97;;;15.63;79.29
69971;BME280;57301;50.328;8.542;2022-10-26T08:51:23;98579.31;;;15.26;80.78
69971;BME280;57301;50.328;8.542;2022-10-26T08:54:04;98581.31;;;15.47;81.56
69971;BME280;57301;50.328;8.542;2022-10-26T08:56:38;98578.69;;;15.01;82.46
69971;BME280;57301;50.328;8.542;2022-10-26T08:59:23;98587.13;;;15.36;81.64
69971;BME280;57301;50.328;8.542;2022-10-26T09:01:55;98588.38;;;15.48;80.72
69971;BME280;57301;50.328;8.542;2022-10-26T09:04:26;98578.53;;;15.55;79.51
69971;BME280;57301;50.328;8.542;2022-10-26T09:09:56;98586.41;;;15.56;79.50
69971;BME280;57301;50.328;8.542;2022-10-26T09:12:49;98578.00;;;16.19;77.68
69971;BME280;57301;50.328;8.542;2022-10-26T09:23:51;98597.19;;;18.02;70.42
69971;BME280;57301;50.328;8.542;2022-10-26T09:26:30;98595.78;;;18.06;69.67
69971;BME280;57301;50.328;8.542;2022-10-26T09:29:02;98598.84;;;18.03;69.15
69971;BME280;57301;50.328;8.542;2022-10-26T09:31:33;98601.91;;;17.65;70.02
69971;BME280;57301;50.328;8.542;2022-10-26T09:34:06;98598.00;;;16.60;74.38
69971;BME280;57301;50.328;8.542;2022-10-26T09:36:33;98599.03;;;16.96;73.53
69971;BME280;57301;50.328;8.542;2022-10-26T09:39:12;98602.53;;;17.17;72.67
69971;BME280;57301;50.328;8.542;2022-10-26T09:41:49;98615.91;;;18.44;70.33
69971;BME280;57301;50.328;8.542;2022-10-26T09:44:24;98617.78;;;20.82;61.42
69971;BME280;57301;50.328;8.542;2022-10-26T09:49:49;98603.38;;;24.17;51.40
69971;BME280;57301;50.328;8.542;2022-10-26T09:52:19;98618.38;;;24.95;47.27
69971;BME280;57301;50.328;8.542;2022-10-26T09:54:46;98621.06;;;23.38;50.80
69971;BME280;57301;50.328;8.542;2022-10-26T09:57:17;98629.09;;;21.92;54.58
69971;BME280;57301;50.328;8.542;2022-10-26T09:59:45;98628.78;;;23.41;50.39
69971;BME280;57301;50.328;8.542;2022-10-26T10:02:37;98622.78;;;23.62;50.78
69971;BME280;57301;50.328;8.542;2022-10-26T10:05:31;98628.28;;;23.44;50.64
69971;BME280;57301;50.328;8.542;2022-10-26T10:08:23;98636.88;;;24.53;48.34
69971;BME280;57301;50.328;8.542;2022-10-26T10:10:54;98639.59;;;27.49;42.07
69971;BME280;57301;50.328;8.542;2022-10-26T10:13:23;98644.88;;;29.65;38.15
69971;BME280;57301;50.328;8.542;2022-10-26T10:16:00;98641.31;;;29.60;35.97
69971;BME280;57301;50.328;8.542;2022-10-26T10:18:27;98654.69;;;25.69;43.60
69971;BME280;57301;50.328;8.542;2022-10-26T10:20:56;98648.50;;;23.36;49.67
69971;BME280;57301;50.328;8.542;2022-10-26T10:23:26;98647.84;;;23.11;50.57
69971;BME280;57301;50.328;8.542;2022-10-26T10:28:26;98652.97;;;21.84;53.92
69971;BME280;57301;50.328;8.542;2022-10-26T10:30:54;98660.50;;;20.87;57.50
69971;BME280;57301;50.328;8.542;2022-10-26T10:33:40;98663.84;;;20.04;59.94
69971;BME280;57301;50.328;8.542;2022-10-26T10:36:18;98663.00;;;20.10;59.95
69971;BME280;57301;50.328;8.542;2022-10-26T10:38:47;98663.22;;;19.82;61.21
69971;BME280;57301;50.328;8.542;2022-10-26T10:41:30;98670.94;;;19.72;62.19
69971;BME280;57301;50.328;8.542;2022-10-26T10:44:11;98675.69;;;18.76;64.51
69971;BME280;57301;50.328;8.542;2022-10-26T10:46:40;98672.91;;;18.28;66.96
69971;BME280;57301;50.328;8.542;2022-10-26T10:49:18;98667.06;;;18.59;66.46
69971;BME280;57301;50.328;8.542;2022-10-26T10:51:47;98674.34;;;19.13;65.53
69971;BME280;57301;50.328;8.542;2022-10-26T10:54:21;98685.47;;;18.42;67.26
69971;BME280;57301;50.328;8.542;2022-10-26T10:56:54;98679.25;;;18.42;67.51
69971;BME280;57301;50.328;8.542;2022-10-26T11:07:45;98688.88;;;22.72;54.19
69971;BME280;57301;50.328;8.542;2022-10-26T11:10:17;98685.09;;;23.40;50.33
69971;BME280;57301;50.328;8.542;2022-10-26T11:12:55;98680.72;;;26.61;45.21
69971;BME280;57301;50.328;8.542;2022-10-26T11:15:27;98694.16;;;22.86;51.08
69971;BME280;57301;50.328;8.542;2022-10-26T11:18:11;98690.41;;;21.50;56.67
69971;BME280;57301;50.328;8.542;2022-10-26T11:20:46;98684.56;;;20.63;59.02
69971;BME280;57301;50.328;8.542;2022-10-26T11:23:21;98688.16;;;20.31;60.50
69971;BME280;57301;50.328;8.542;2022-10-26T11:25:52;98701.09;;;19.63;62.20
69971;BME280;57301;50.328;8.542;2022-10-26T11:28:39;98701.31;;;19.68;63.57
69971;BME280;57301;50.328;8.542;2022-10-26T11:31:13;98701.69;;;20.57;59.50
69971;BME280;57301;50.328;8.542;2022-10-26T11:33:47;98700.28;;;20.15;60.05
69971;BME280;57301;50.328;8.542;2022-10-26T11:36:19;98700.59;;;21.16;58.95
69971;BME280;57301;50.328;8.542;2022-10-26T11:42:00;98704.97;;;22.12;54.98
69971;BME280;57301;50.328;8.542;2022-10-26T11:44:39;98708.19;;;20.17;60.12
69971;BME280;57301;50.328;8.542;2022-10-26T11:47:36;98702.16;;;20.92;58.76
69971;BME280;57301;50.328;8.542;2022-10-26T11:50:20;98703.75;;;20.55;60.32
69971;BME280;57301;50.328;8.542;2022-10-26T11:52:52;98712.97;;;19.75;61.82
69971;BME280;57301;50.328;8.542;2022-10-26T11:55:21;98717.06;;;19.51;63.76
69971;BME280;57301;50.328;8.542;2022-10-26T11:57:50;98724.06;;;19.12;64.87
69971;BME280;57301;50.328;8.542;2022-10-26T12:00:20;98722.19;;;19.13;64.52
69971;BME280;57301;50.328;8.542;2022-10-26T12:03:24;98722.56;;;19.71;63.78
69971;BME280;57301;50.328;8.542;2022-10-26T12:05:52;98728.81;;;19.91;63.37
69971;BME280;57301;50.328;8.542;2022-10-26T12:08:37;98725.69;;;20.07;62.82
69971;BME280;57301;50.328;8.542;2022-10-26T12:11:13;98716.09;;;20.11;62.54
69971;BME280;57301;50.328;8.542;2022-10-26T12:13:58;98725.88;;;20.12;61.40
69971;BME280;57301;50.328;8.542;2022-10-26T12:19:03;98733.09;;;20.72;59.95
69971;BME280;57301;50.328;8.542;2022-10-26T12:21:33;98724.22;;;21.03;59.40
69971;BME280;57301;50.328;8.542;2022-10-26T12:24:01;98734.22;;;20.11;61.52
69971;BME280;57301;50.328;8.542;2022-10-26T12:26:52;98738.81;;;20.10;61.46
69971;BME280;57301;50.328;8.542;2022-10-26T12:29:44;98735.28;;;19.97;62.35
69971;BME280;57301;50.328;8.542;2022-10-26T12:37:35;98739.63;;;20.11;63.78
69971;BME280;57301;50.328;8.542;2022-10-26T12:45:43;98730.97;;;23.97;52.71
69971;BME280;57301;50.328;8.542;2022-10-26T12:48:24;98729.44;;;26.09;47.34
69971;BME280;57301;50.328;8.542;2022-10-26T12:54:01;98739.06;;;24.74;47.17
69971;BME280;57301;50.328;8.542;2022-10-26T12:56:50;98739.72;;;25.44;46.88
69971;BME280;57301;50.328;8.542;2022-10-26T12:59:36;98745.03;;;27.02;42.25
69971;BME280;57301;50.328;8.542;2022-10-26T13:05:48;98734.41;;;28.41;40.69
69971;BME280;57301;50.328;8.542;2022-10-26T13:08:23;98735.84;;;29.64;38.85
69971;BME280;57301;50.328;8.542;2022-10-26T13:11:05;98743.28;;;29.68;36.38
69971;BME280;57301;50.328;8.542;2022-10-26T13:13:34;98741.13;;;30.47;35.81
69971;BME280;57301;50.328;8.542;2022-10-26T13:16:01;98747.41;;;27.38;40.32
69971;BME280;57301;50.328;8.542;2022-10-26T13:18:29;98740.75;;;29.47;37.90
69971;BME280;57301;50.328;8.542;2022-10-26T13:21:07;98747.97;;;27.89;39.25
69971;BME280;57301;50.328;8.542;2022-10-26T13:23:38;98752.75;;;25.83;44.26
69971;BME280;57301;50.328;8.542;2022-10-26T13:26:17;98756.34;;;26.17;44.09
69971;BME280;57301;50.328;8.542;2022-10-26T13:28:49;98761.63;;;27.62;41.23
69971;BME280;57301;50.328;8.542;2022-10-26T13:34:14;98763.25;;;27.57;41.04
69971;BME280;57301;50.328;8.542;2022-10-26T13:39:34;98767.94;;;27.13;41.62
69971;BME280;57301;50.328;8.542;2022-10-26T13:42:04;98766.13;;;27.24;41.13
69971;BME280;57301;50.328;8.542;2022-10-26T13:44:40;98755.38;;;27.66;40.04
69971;BME280;57301;50.328;8.542;2022-10-26T13:47:13;98757.16;;;28.79;38.27
69971;BME280;57301;50.328;8.542;2022-10-26T13:49:44;98760.03;;;27.39;39.93
69971;BME280;57301;50.328;8.542;2022-10-26T13:52:28;98773.47;;;25.67;44.54
69971;BME280;57301;50.328;8.542;2022-10-26T13:57:48;98778.44;;;23.89;50.14
69971;BME280;57301;50.328;8.542;2022-10-26T14:00:21;98782.38;;;22.96;52.20
69971;BME280;57301;50.328;8.542;2022-10-26T14:02:48;98785.91;;;23.15;51.10
69971;BME280;57301;50.328;8.542;2022-10-26T14:05:17;98789.03;;;21.17;56.63
69971;BME280;57301;50.328;8.542;2022-10-26T14:07:47;98790.91;;;20.52;58.49
69971;BME280;57301;50.328;8.542;2022-10-26T14:10:25;98789.00;;;20.33;60.09
69971;BME280;57301;50.328;8.542;2022-10-26T14:12:53;98795.88;;;20.29;60.38
69971;BME280;57301;50.328;8.542;2022-10-26T14:15:28;98799.84;;;20.20;61.38
69971;BME280;57301;50.328;8.542;2022-10-26T14:17:57;98805.44;;;20.18;61.17
69971;BME280;57301;50.328;8.542;2022-10-26T14:20:26;98798.34;;;20.44;60.57
69971;BME280;57301;50.328;8.542;2022-10-26T14:22:53;98806.25;;;19.92;61.83
69971;BME280;57301;50.328;8.542;2022-10-26T14:25:28;98814.94;;;19.61;63.37
69971;BME280;57301;50.328;8.542;2022-10-26T14:28:28;98809.06;;;19.57;63.02
69971;BME280;57301;50.328;8.542;2022-10-26T14:31:22;98818.94;;;19.72;63.33
69971;BME280;57301;50.328;8.542;2022-10-26T14:33:50;98820.28;;;19.48;63.79
69971;BME280;57301;50.328;8.542;2022-10-26T14:36:19;98827.44;;;19.69;63.44
69971;BME280;57301;50.328;8.542;2022-10-26T14:38:50;98816.47;;;19.83;62.72
69971;BME280;57301;50.328;8.542;2022-10-26T14:41:18;98826.00;;;19.73;63.53
69971;BME280;57301;50.328;8.542;2022-10-26T14:43:46;98827.59;;;19.54;63.96
69971;BME280;57301;50.328;8.542;2022-10-26T14:46:15;98836.56;;;19.13;64.80
69971;BME280;57301;50.328;8.542;2022-10-26T14:48:56;98836.69;;;18.98;66.13
69971;BME280;57301;50.328;8.542;2022-10-26T14:51:28;98832.00;;;19.20;66.21